Time;durP1;ratioP1;P1;durP2;ratioP2;P2;SDS_P1;SDS_P2;PMS_P1;PMS_P2;Temp;Humidity;BMP_temperature;BMP_pressure;BME280_temperature;BME280_humidity;BME280_pressure;Samples;Min_cycle;Max_cycle;Signal;HPM_P1;HPM_P2
2021/12/18 00:01:20;;;;;;;9.95;1.83;;;6.40;99.90;;;;;;5075447;28;20124;-56
2021/12/18 00:03:46;;;;;;;4.82;1.77;;;;;;;;;;5073561;28;20044;-56
2021/12/18 00:06:12;;;;;;;11.48;1.83;;;;;;;;;;5061012;28;20094;-56
2021/12/18 00:08:41;;;;;;;10.98;1.77;;;6.30;99.90;;;;;;5076746;28;20056;-57
2021/12/18 00:11:07;;;;;;;12.70;2.17;;;;;;;;;;5078781;28;20032;-56
2021/12/18 00:13:33;;;;;;;7.80;1.85;;;6.50;99.90;;;;;;5084494;28;20094;-57
2021/12/18 00:16:00;;;;;;;16.30;2.63;;;6.30;99.90;;;;;;5076471;28;20482;-54
2021/12/18 00:18:26;;;;;;;22.58;2.47;;;6.40;99.90;;;;;;5072073;28;20524;-55
2021/12/18 00:20:52;;;;;;;8.05;1.77;;;;;;;;;;5083768;28;20068;-54
2021/12/18 00:23:19;;;;;;;9.75;1.75;;;;;;;;;;5066610;28;20037;-56
2021/12/18 00:25:44;;;;;;;5.75;1.70;;;6.30;99.90;;;;;;5068677;28;20028;-53
2021/12/18 00:28:11;;;;;;;8.05;1.45;;;6.40;99.90;;;;;;5082581;28;20092;-57
2021/12/18 00:30:38;;;;;;;12.77;1.60;;;6.20;99.90;;;;;;5079042;28;20508;-55
2021/12/18 00:33:05;;;;;;;10.50;2.92;;;6.40;99.90;;;;;;5072840;28;20055;-54
2021/12/18 00:35:33;;;;;;;9.95;2.45;;;6.40;99.90;;;;;;5080791;28;20067;-57
2021/12/18 00:37:59;;;;;;;8.70;1.50;;;;;;;;;;5072979;28;20075;-57
2021/12/18 00:40:30;;;;;;;6.50;1.55;;;6.30;99.90;;;;;;5080773;28;20457;-56
2021/12/18 00:43:13;;;;;;;9.23;1.98;;;6.20;99.90;;;;;;5078863;28;20063;-56
2021/12/18 00:45:39;;;;;;;6.35;1.67;;;;;;;;;;5075643;28;20366;-56
2021/12/18 00:48:05;;;;;;;7.60;2.25;;;6.30;99.90;;;;;;5075208;28;20488;-55
2021/12/18 00:50:31;;;;;;;8.18;2.17;;;6.20;99.90;;;;;;5074483;28;20039;-56
2021/12/18 00:52:57;;;;;;;7.00;2.13;;;;;;;;;;5066213;28;20090;-57
2021/12/18 00:55:23;;;;;;;12.65;2.28;;;6.30;99.90;;;;;;5073620;28;20098;-57
2021/12/18 00:57:50;;;;;;;6.78;2.22;;;6.40;99.90;;;;;;5064646;28;20082;-57
2021/12/18 01:00:24;;;;;;;8.95;2.17;;;6.20;99.90;;;;;;5083650;28;20044;-56
2021/12/18 01:02:58;;;;;;;11.90;2.38;;;6.40;99.90;;;;;;5081787;28;20582;-53
2021/12/18 01:05:25;;;;;;;10.63;2.22;;;6.40;99.90;;;;;;5078221;28;20079;-57
2021/12/18 01:07:54;;;;;;;10.32;2.30;;;;;;;;;;5064065;28;20043;-55
2021/12/18 01:12:51;;;;;;;11.57;2.22;;;6.30;99.90;;;;;;5083782;28;20052;-56
2021/12/18 01:15:24;;;;;;;14.70;2.28;;;6.30;99.90;;;;;;5078714;28;20059;-53
2021/12/18 01:23:40;;;;;;;8.75;1.90;;;6.10;99.90;;;;;;5014947;28;20045;-57
2021/12/18 01:26:06;;;;;;;7.45;1.90;;;6.20;99.90;;;;;;5020622;28;20064;-56
2021/12/18 01:28:32;;;;;;;8.02;2.10;;;;;;;;;;5021252;28;20037;-57
2021/12/18 01:31:00;;;;;;;6.07;1.70;;;6.10;99.90;;;;;;5004005;28;20090;-56
2021/12/18 01:33:27;;;;;;;10.98;1.90;;;;;;;;;;5013531;28;20145;-57
2021/12/18 01:35:53;;;;;;;8.77;2.13;;;;;;;;;;5010102;28;20041;-54
2021/12/18 01:38:22;;;;;;;7.30;1.83;;;6.30;99.90;;;;;;5009897;28;20115;-55
2021/12/18 01:40:48;;;;;;;8.57;1.90;;;;;;;;;;5011830;28;20456;-57
2021/12/18 01:46:31;;;;;;;13.95;2.78;;;;;;;;;;5014133;28;20100;-56
2021/12/18 01:54:11;;;;;;;11.05;2.63;;;6.10;99.90;;;;;;5013181;28;20041;-53
2021/12/18 01:56:38;;;;;;;40.63;3.13;;;;;;;;;;5019743;28;20056;-55
2021/12/18 01:59:03;;;;;;;17.83;2.47;;;6.20;99.90;;;;;;5024451;28;20042;-56
2021/12/18 02:01:30;;;;;;;16.30;2.78;;;;;;;;;;5029773;28;20124;-56
2021/12/18 02:03:55;;;;;;;8.73;2.10;;;6.10;99.90;;;;;;5035541;28;20109;-57
2021/12/18 02:06:23;;;;;;;9.10;2.30;;;6.20;99.90;;;;;;5023366;28;20549;-54
2021/12/18 02:08:49;;;;;;;11.77;2.40;;;;;;;;;;5027196;28;20041;-57
2021/12/18 02:14:36;;;;;;;9.15;1.30;;;6.10;99.90;;;;;;5031606;28;20052;-57
2021/12/18 02:21:57;;;;;;;5.95;1.35;;;6.10;99.90;;;;;;5028795;28;20042;-55
2021/12/18 02:24:26;;;;;;;8.77;1.90;;;;;;;;;;5035440;28;20033;-53
2021/12/18 02:26:52;;;;;;;5.68;1.63;;;;;;;;;;5032262;28;20688;-56
2021/12/18 02:29:21;;;;;;;9.55;2.50;;;6.20;99.90;;;;;;5032305;28;20044;-55
2021/12/18 02:31:47;;;;;;;7.65;2.00;;;;;;;;;;5032623;28;20041;-56
2021/12/18 02:34:26;;;;;;;6.78;2.50;;;6.20;99.90;;;;;;5023483;28;20041;-54
2021/12/18 02:36:53;;;;;;;8.82;2.20;;;;;;;;;;5031325;28;20033;-57
2021/12/18 02:39:40;;;;;;;7.60;1.85;;;6.20;99.90;;;;;;5027324;28;20053;-57
2021/12/18 02:42:12;;;;;;;7.30;2.50;;;6.20;99.90;;;;;;5021813;28;20075;-55
2021/12/18 02:44:39;;;;;;;7.43;1.80;;;6.20;99.90;;;;;;5026051;28;20056;-57
2021/12/18 02:47:06;;;;;;;10.50;1.75;;;6.20;99.90;;;;;;5042006;28;20033;-56
2021/12/18 02:49:32;;;;;;;9.10;2.00;;;;;;;;;;5033625;28;20755;-56
2021/12/18 02:52:00;;;;;;;7.80;1.52;;;6.10;99.90;;;;;;5022229;28;20099;-55
2021/12/18 02:54:26;;;;;;;8.13;2.03;;;;;;;;;;5062383;28;20521;-55
2021/12/18 02:56:53;;;;;;;5.15;1.42;;;6.10;99.90;;;;;;5073286;28;20067;-53
2021/12/18 02:59:21;;;;;;;4.72;1.50;;;6.00;99.90;;;;;;5072564;28;20040;-57
2021/12/18 03:01:47;;;;;;;5.22;1.48;;;;;;;;;;5079248;28;20564;-57
2021/12/18 03:04:22;;;;;;;5.38;1.23;;;;;;;;;;5081964;28;20123;-53
2021/12/18 03:06:56;;;;;;;10.77;1.48;;;6.10;99.90;;;;;;5072512;28;20105;-55
2021/12/18 03:25:36;;;;;;;5.85;1.30;;;6.10;99.90;;;;;;5080545;28;20032;-57
2021/12/18 03:28:03;;;;;;;9.05;1.50;;;6.10;99.90;;;;;;5071784;28;20055;-57
2021/12/18 03:30:29;;;;;;;6.38;1.27;;;;;;;;;;5073348;28;20043;-57
2021/12/18 03:32:55;;;;;;;7.25;1.58;;;;;;;;;;5072485;28;20047;-57
2021/12/18 03:35:21;;;;;;;5.65;1.48;;;;;;;;;;5074967;28;20028;-57
2021/12/18 03:37:49;;;;;;;7.72;1.80;;;6.10;99.90;;;;;;5074899;28;20079;-53
2021/12/18 03:40:19;;;;;;;9.35;1.80;;;6.00;99.90;;;;;;5076013;28;20029;-55
2021/12/18 03:42:46;;;;;;;8.10;1.38;;;6.10;99.90;;;;;;5073945;28;20592;-56
2021/12/18 03:45:14;;;;;;;7.93;1.73;;;6.10;99.90;;;;;;5072179;28;20032;-56
2021/12/18 03:47:40;;;;;;;7.07;1.48;;;;;;;;;;5074164;28;20036;-57
2021/12/18 03:50:06;;;;;;;9.57;1.67;;;6.20;99.90;;;;;;5067876;28;20039;-53
2021/12/18 03:52:32;;;;;;;9.63;1.30;;;6.20;99.90;;;;;;5061749;28;20083;-57
2021/12/18 03:55:00;;;;;;;11.40;1.63;;;6.10;99.90;;;;;;5073936;28;20076;-55
2021/12/18 03:57:26;;;;;;;13.57;1.95;;;6.10;99.90;;;;;;5075774;28;20404;-55
2021/12/18 03:59:53;;;;;;;9.98;1.75;;;;;;;;;;5061698;28;20039;-56
2021/12/18 04:02:20;;;;;;;11.27;1.88;;;6.20;99.90;;;;;;5075117;28;20052;-53
2021/12/18 04:04:46;;;;;;;16.27;2.15;;;;;;;;;;5077798;28;20040;-58
2021/12/18 04:07:12;;;;;;;11.32;1.80;;;6.20;99.90;;;;;;5081086;28;20063;-56
2021/12/18 04:09:39;;;;;;;8.32;1.80;;;6.20;99.90;;;;;;5064190;28;20715;-55
2021/12/18 04:12:08;;;;;;;10.63;1.80;;;6.20;99.90;;;;;;5080837;28;20072;-57
2021/12/18 04:14:33;;;;;;;7.40;1.60;;;6.20;99.90;;;;;;5072256;28;20630;-56
2021/12/18 04:16:59;;;;;;;6.75;1.90;;;6.20;99.90;;;;;;5071486;28;20068;-53
2021/12/18 04:19:26;;;;;;;8.63;1.88;;;6.30;99.90;;;;;;5074672;28;20028;-55
2021/12/18 04:21:52;;;;;;;10.43;2.25;;;;;;;;;;5060094;28;20040;-55
2021/12/18 04:24:18;;;;;;;9.00;2.10;;;6.30;99.90;;;;;;5064833;28;20044;-57
2021/12/18 04:26:44;;;;;;;10.02;2.10;;;;;;;;;;5077442;28;20514;-60
2021/12/18 04:29:10;;;;;;;13.38;2.63;;;6.20;99.90;;;;;;5061515;28;20055;-56
2021/12/18 04:31:37;;;;;;;16.23;2.70;;;6.30;99.90;;;;;;5070752;28;20484;-55
2021/12/18 04:34:04;;;;;;;19.48;3.22;;;6.40;99.90;;;;;;5068855;28;20039;-57
2021/12/18 04:36:33;;;;;;;14.25;3.25;;;6.30;99.90;;;;;;5067086;28;20040;-56
2021/12/18 04:38:59;;;;;;;13.77;3.30;;;;;;;;;;5071326;28;20519;-56
2021/12/18 04:41:38;;;;;;;16.48;3.78;;;;;;;;;;5071767;28;20040;-53
2021/12/18 04:44:04;;;;;;;17.33;3.10;;;6.40;99.90;;;;;;5079018;28;20142;-56
2021/12/18 04:46:31;;;;;;;13.52;3.30;;;;;;;;;;5067740;28;20033;-54
2021/12/18 04:48:57;;;;;;;19.98;3.88;;;;;;;;;;5067267;28;20127;-55
2021/12/18 04:51:23;;;;;;;10.43;3.30;;;;;;;;;;5067736;28;20111;-58
2021/12/18 04:53:50;;;;;;;14.00;4.75;;;6.40;99.90;;;;;;5071904;28;20048;-54
2021/12/18 04:56:16;;;;;;;16.40;4.88;;;;;;;;;;5071418;28;20040;-56
2021/12/18 04:58:42;;;;;;;15.00;5.30;;;;;;;;;;5069036;28;20028;-51
2021/12/18 05:01:10;;;;;;;21.02;5.38;;;6.50;99.90;;;;;;5076229;28;20041;-55
2021/12/18 05:03:40;;;;;;;18.88;5.85;;;6.70;99.90;;;;;;5080842;28;20028;-55
2021/12/18 05:06:05;;;;;;;22.65;6.50;;;6.60;99.90;;;;;;5068979;28;20102;-55
2021/12/18 05:08:31;;;;;;;28.65;7.10;;;;;;;;;;5078711;28;20123;-52
2021/12/18 05:10:59;;;;;;;30.85;8.00;;;6.50;99.90;;;;;;5082336;28;20515;-57
2021/12/18 05:13:25;;;;;;;33.78;8.35;;;6.70;99.90;;;;;;5073059;28;20033;-55
2021/12/18 05:15:51;;;;;;;27.02;7.38;;;;;;;;;;5079128;28;20047;-57
2021/12/18 05:18:17;;;;;;;24.77;7.85;;;6.50;99.90;;;;;;5071236;28;20044;-54
2021/12/18 05:20:43;;;;;;;21.77;6.90;;;;;;;;;;5064464;28;20151;-51
2021/12/18 05:23:08;;;;;;;17.25;6.22;;;6.60;99.90;;;;;;5077257;28;20131;-51
2021/12/18 05:25:34;;;;;;;20.70;6.80;;;;;;;;;;5083865;28;20131;-54
2021/12/18 05:28:00;;;;;;;31.70;7.38;;;6.70;99.90;;;;;;5072951;28;20040;-57
2021/12/18 05:30:26;;;;;;;15.32;5.72;;;6.60;99.90;;;;;;5080117;28;20676;-54
2021/12/18 05:32:52;;;;;;;16.15;6.38;;;6.90;99.90;;;;;;5077929;28;20028;-50
2021/12/18 05:35:19;;;;;;;19.77;5.78;;;6.70;99.90;;;;;;5084263;28;20062;-52
2021/12/18 05:37:51;;;;;;;15.48;5.13;;;;;;;;;;5082768;28;20043;-53
2021/12/18 05:40:19;;;;;;;;;;;6.80;99.90;;;;;;5082137;28;20115;-53
2021/12/18 05:42:45;;;;;;;15.68;5.50;;;;;;;;;;5072833;28;19994;-56
2021/12/18 05:45:11;;;;;;;12.05;4.93;;;6.90;99.90;;;;;;5063713;28;20089;-51
2021/12/18 05:47:37;;;;;;;18.10;5.63;;;;;;;;;;5084973;28;20036;-57
2021/12/18 05:50:04;;;;;;;14.93;5.47;;;6.80;99.90;;;;;;5078639;28;20536;-57
2021/12/18 05:52:32;;;;;;;18.10;5.97;;;6.70;99.90;;;;;;5063504;28;20045;-52
2021/12/18 05:54:58;;;;;;;15.55;5.75;;;;;;;;;;5077539;28;21498;-52
2021/12/18 05:57:24;;;;;;;12.27;4.20;;;;;;;;;;5071931;28;22063;-57
2021/12/18 05:59:50;;;;;;;12.55;4.10;;;6.90;99.90;;;;;;5077098;28;20143;-55
2021/12/18 06:02:16;;;;;;;18.38;4.82;;;6.90;99.90;;;;;;5078866;28;20190;-54
2021/12/18 06:04:42;;;;;;;17.65;4.68;;;7.00;99.90;;;;;;5064658;28;20032;-52
2021/12/18 06:07:17;;;;;;;21.33;5.22;;;6.70;99.90;;;;;;5072469;28;20591;-53
2021/12/18 06:09:43;;;;;;;15.00;4.57;;;6.80;99.90;;;;;;5064222;28;20040;-54
2021/12/18 06:12:09;;;;;;;13.63;4.50;;;7.00;99.90;;;;;;5062081;28;20031;-56
2021/12/18 06:14:35;;;;;;;15.05;4.38;;;;;;;;;;5063196;28;20047;-56
2021/12/18 06:17:04;;;;;;;11.48;4.25;;;6.80;99.90;;;;;;5063273;28;20063;-52
2021/12/18 06:19:30;;;;;;;17.30;4.97;;;6.90;99.90;;;;;;5081099;28;20485;-51
2021/12/18 06:21:56;;;;;;;14.63;4.82;;;;;;;;;;5081373;28;20085;-52
2021/12/18 06:24:21;;;;;;;17.52;5.40;;;6.90;99.90;;;;;;5081593;28;20028;-52
2021/12/18 06:26:47;;;;;;;17.48;5.07;;;6.90;99.90;;;;;;5073037;28;20039;-57
2021/12/18 06:29:13;;;;;;;25.67;6.22;;;7.10;99.90;;;;;;5071617;28;20408;-53
2021/12/18 06:31:39;;;;;;;19.40;5.30;;;6.80;99.90;;;;;;5064912;28;20052;-52
2021/12/18 06:34:06;;;;;;;17.88;5.22;;;7.00;99.90;;;;;;5080133;28;20126;-54
2021/12/18 06:36:32;;;;;;;20.65;4.93;;;;;;;;;;5071978;28;20071;-58
2021/12/18 06:38:57;;;;;;;19.17;5.38;;;7.00;99.90;;;;;;5061337;28;20501;-55
2021/12/18 06:41:25;;;;;;;20.63;6.28;;;7.10;99.90;;;;;;5063462;28;20040;-54
2021/12/18 06:43:51;;;;;;;18.08;5.43;;;7.00;99.90;;;;;;5074913;28;20050;-52
2021/12/18 06:46:17;;;;;;;18.10;5.13;;;7.10;99.90;;;;;;5064243;28;20264;-53
2021/12/18 06:48:43;;;;;;;20.55;6.97;;;7.10;99.90;;;;;;5084099;28;20046;-52
2021/12/18 06:51:08;;;;;;;14.82;6.18;;;7.00;99.90;;;;;;5073583;28;20170;-57
2021/12/18 06:53:34;;;;;;;23.25;6.80;;;6.90;99.90;;;;;;5068305;28;20051;-56
2021/12/18 06:56:00;;;;;;;13.60;5.55;;;;;;;;;;5080740;28;20044;-57
2021/12/18 06:58:26;;;;;;;23.33;6.50;;;7.00;99.90;;;;;;5068428;28;20036;-55
2021/12/18 07:00:53;;;;;;;21.60;5.47;;;7.10;99.90;;;;;;5079001;28;20044;-56
2021/12/18 07:03:20;;;;;;;20.10;7.10;;;7.10;99.90;;;;;;5065439;28;20605;-56
2021/12/18 07:05:48;;;;;;;20.45;6.57;;;7.20;99.90;;;;;;5082051;28;20043;-56
2021/12/18 07:08:14;;;;;;;17.17;5.43;;;;;;;;;;5069181;28;20115;-56
2021/12/18 07:10:40;;;;;;;20.77;5.05;;;;;;;;;;5070187;28;20036;-55
2021/12/18 07:13:06;;;;;;;15.57;6.53;;;7.20;99.90;;;;;;5061496;28;20516;-56
2021/12/18 07:15:32;;;;;;;31.92;8.65;;;7.20;99.90;;;;;;5073984;28;20117;-56
2021/12/18 07:17:58;;;;;;;21.20;8.80;;;;;;;;;;5067176;28;20660;-57
2021/12/18 07:20:25;;;;;;;20.98;10.25;;;;;;;;;;5082394;28;20071;-55
2021/12/18 07:22:51;;;;;;;18.50;6.18;;;7.30;99.90;;;;;;5081901;28;20040;-55
2021/12/18 07:25:16;;;;;;;17.00;5.95;;;7.20;99.90;;;;;;5062534;28;20047;-52
2021/12/18 07:27:44;;;;;;;19.92;5.85;;;7.30;99.90;;;;;;5073741;28;20036;-56
2021/12/18 07:30:11;;;;;;;22.77;6.60;;;7.20;99.90;;;;;;5068903;28;20040;-56
2021/12/18 07:32:37;;;;;;;21.50;6.00;;;7.30;99.90;;;;;;5080612;28;20035;-56
2021/12/18 07:35:04;;;;;;;13.85;5.38;;;7.10;99.90;;;;;;5059955;28;20086;-56
2021/12/18 07:37:30;;;;;;;19.63;6.07;;;7.40;99.90;;;;;;5070702;28;20488;-57
2021/12/18 07:39:56;;;;;;;20.75;5.43;;;7.30;99.90;;;;;;5069176;28;20090;-54
2021/12/18 07:42:24;;;;;;;11.88;4.50;;;7.40;99.90;;;;;;5077058;28;20032;-56
2021/12/18 07:44:50;;;;;;;18.20;7.97;;;7.10;99.90;;;;;;5069932;28;20036;-57
2021/12/18 07:47:18;;;;;;;15.80;7.13;;;7.40;99.90;;;;;;5076244;28;20082;-56
2021/12/18 07:49:44;;;;;;;13.82;4.43;;;7.40;99.90;;;;;;5072072;28;20126;-53
2021/12/18 07:52:12;;;;;;;15.70;4.30;;;7.40;99.90;;;;;;5070182;28;20120;-55
2021/12/18 07:54:38;;;;;;;16.73;5.97;;;7.40;99.90;;;;;;5064963;28;20127;-57
2021/12/18 07:57:04;;;;;;;12.65;4.38;;;7.30;99.90;;;;;;5068696;28;20150;-53
2021/12/18 07:59:30;;;;;;;14.02;4.80;;;7.30;99.90;;;;;;5072919;28;20049;-55
2021/12/18 08:01:57;;;;;;;11.75;3.95;;;7.30;99.90;;;;;;5070802;28;20493;-56
2021/12/18 08:04:23;;;;;;;12.93;4.03;;;7.50;99.90;;;;;;5076631;28;20064;-56
2021/12/18 08:06:49;;;;;;;13.10;5.57;;;7.50;99.90;;;;;;5065138;28;20064;-57
2021/12/18 08:09:16;;;;;;;10.55;4.05;;;7.40;99.90;;;;;;5061213;28;20420;-57
2021/12/18 08:11:42;;;;;;;10.52;4.25;;;7.40;99.90;;;;;;5061935;28;20470;-55
2021/12/18 08:14:08;;;;;;;13.27;3.92;;;7.60;99.90;;;;;;5064666;28;20036;-57
2021/12/18 08:16:33;;;;;;;11.98;3.70;;;7.50;99.90;;;;;;5070752;28;20040;-57
2021/12/18 08:18:59;;;;;;;16.38;4.05;;;;;;;;;;5080834;28;20040;-57
2021/12/18 08:21:25;;;;;;;9.15;3.33;;;7.50;99.90;;;;;;5072939;28;20515;-57
2021/12/18 08:23:51;;;;;;;9.73;4.45;;;;;;;;;;5080961;28;20044;-56
2021/12/18 08:26:19;;;;;;;9.88;4.40;;;7.50;99.90;;;;;;5080188;28;20119;-57
2021/12/18 08:28:44;;;;;;;15.10;4.78;;;7.60;99.90;;;;;;5060104;28;20102;-57
2021/12/18 08:31:10;;;;;;;12.25;3.72;;;7.70;99.90;;;;;;5081398;28;20409;-56
2021/12/18 08:33:38;;;;;;;9.50;3.80;;;7.70;99.90;;;;;;5073406;28;20039;-57
2021/12/18 08:36:04;;;;;;;8.15;3.60;;;7.70;99.90;;;;;;5083693;28;20032;-56
2021/12/18 08:38:30;;;;;;;10.48;3.30;;;;;;;;;;5066107;28;20040;-55
2021/12/18 08:40:55;;;;;;;11.63;3.72;;;7.70;99.90;;;;;;5083314;28;20036;-55
2021/12/18 08:43:24;;;;;;;14.80;3.95;;;7.70;99.90;;;;;;5082997;28;20047;-57
2021/12/18 08:45:50;;;;;;;17.27;5.28;;;7.70;99.90;;;;;;5064923;28;20044;-57
2021/12/18 08:48:16;;;;;;;12.70;3.85;;;7.70;99.90;;;;;;5079121;28;20032;-57
2021/12/18 08:50:46;;;;;;;10.55;3.08;;;7.80;99.90;;;;;;5076703;28;20093;-57
2021/12/18 08:53:11;;;;;;;10.95;3.72;;;7.70;99.90;;;;;;5069944;28;20040;-56
2021/12/18 08:55:37;;;;;;;10.20;4.00;;;7.80;99.90;;;;;;5085194;28;20040;-55
2021/12/18 08:58:03;;;;;;;9.80;3.97;;;7.90;99.90;;;;;;5076140;28;20037;-56
2021/12/18 09:00:30;;;;;;;12.52;4.28;;;7.90;99.90;;;;;;5071905;28;20033;-57
2021/12/18 09:02:58;;;;;;;10.23;3.70;;;7.90;99.90;;;;;;5065962;28;20051;-57
2021/12/18 09:05:26;;;;;;;12.45;4.00;;;7.90;99.90;;;;;;5082338;28;20153;-57
2021/12/18 09:07:53;;;;;;;11.27;3.97;;;7.90;99.90;;;;;;5084617;28;20043;-56
2021/12/18 09:10:20;;;;;;;15.20;4.95;;;8.00;99.90;;;;;;5083934;28;20120;-55
2021/12/18 09:12:46;;;;;;;11.73;4.70;;;7.70;99.90;;;;;;5085125;28;20513;-57
2021/12/18 09:15:12;;;;;;;11.90;3.65;;;8.00;99.90;;;;;;5082553;28;20466;-57
2021/12/18 09:17:37;;;;;;;14.93;4.13;;;7.90;99.90;;;;;;5077905;28;20055;-57
2021/12/18 09:20:04;;;;;;;12.23;5.50;;;8.10;99.90;;;;;;5065345;28;20058;-57
2021/12/18 09:22:30;;;;;;;14.95;4.45;;;8.00;99.90;;;;;;5067722;28;20565;-56
2021/12/18 09:24:56;;;;;;;17.95;4.68;;;8.00;99.90;;;;;;5078883;28;20040;-56
2021/12/18 09:27:22;;;;;;;14.93;4.93;;;8.00;99.90;;;;;;5065571;28;20033;-55
2021/12/18 09:29:50;;;;;;;13.07;4.80;;;7.90;99.90;;;;;;5072407;28;20545;-55
2021/12/18 09:32:16;;;;;;;13.02;5.03;;;8.00;99.90;;;;;;5064111;28;20036;-56
2021/12/18 09:34:41;;;;;;;10.13;4.55;;;8.00;99.90;;;;;;5079552;28;20032;-56
2021/12/18 09:37:09;;;;;;;11.00;4.53;;;8.00;99.90;;;;;;5075190;28;20207;-56
2021/12/18 09:39:35;;;;;;;10.60;4.22;;;8.00;99.90;;;;;;5085047;28;20047;-57
2021/12/18 09:42:01;;;;;;;11.05;3.97;;;8.00;99.90;;;;;;5080565;28;20032;-55
2021/12/18 09:44:31;;;;;;;8.18;3.63;;;8.10;99.90;;;;;;5077005;28;20489;-53
2021/12/18 09:46:57;;;;;;;9.95;4.05;;;8.00;99.90;;;;;;5069208;28;20060;-54
2021/12/18 09:49:24;;;;;;;10.93;3.63;;;8.00;99.90;;;;;;5068288;28;20115;-57
2021/12/18 09:51:50;;;;;;;9.75;3.80;;;8.00;99.90;;;;;;5081381;28;20405;-54
2021/12/18 09:54:16;;;;;;;14.15;4.22;;;7.90;99.90;;;;;;5064536;28;20056;-56
2021/12/18 09:56:43;;;;;;;7.97;3.33;;;7.90;99.90;;;;;;5064661;28;20046;-54
2021/12/18 09:59:09;;;;;;;9.98;4.05;;;7.90;99.90;;;;;;5071201;28;20079;-56
2021/12/18 10:01:35;;;;;;;10.02;3.78;;;8.20;99.90;;;;;;5075735;28;20032;-57
2021/12/18 10:04:03;;;;;;;10.35;4.30;;;8.00;99.90;;;;;;5076617;28;20046;-55
2021/12/18 10:06:44;;;;;;;9.00;3.58;;;7.90;99.90;;;;;;5067721;28;20484;-56
2021/12/18 10:09:11;;;;;;;7.88;3.63;;;7.90;99.90;;;;;;5073204;28;21206;-56
2021/12/18 10:11:58;;;;;;;12.55;4.35;;;8.00;99.90;;;;;;5070875;28;20036;-54
2021/12/18 10:14:42;;;;;;;13.90;5.70;;;8.00;99.90;;;;;;5079156;28;20770;-56
2021/12/18 10:17:27;;;;;;;9.65;4.25;;;8.00;99.90;;;;;;5068711;28;20040;-56
2021/12/18 10:20:14;;;;;;;10.95;4.30;;;8.00;99.90;;;;;;5082211;28;20044;-53
2021/12/18 10:22:48;;;;;;;14.15;4.25;;;8.00;99.90;;;;;;5073506;28;20041;-55
2021/12/18 10:25:38;;;;;;;13.52;4.22;;;8.10;99.90;;;;;;5075001;28;20089;-55
2021/12/18 10:28:18;;;;;;;13.98;4.53;;;8.10;99.90;;;;;;5010121;28;20053;-55
2021/12/18 10:30:52;;;;;;;7.03;3.10;;;8.10;99.90;;;;;;5011329;28;20050;-54
2021/12/18 10:33:18;;;;;;;8.20;3.47;;;8.10;99.90;;;;;;5015925;28;20049;-55
2021/12/18 10:35:50;;;;;;;10.40;3.88;;;8.00;99.90;;;;;;5013659;28;20186;-55
2021/12/18 10:38:45;;;;;;;11.13;4.20;;;8.10;99.90;;;;;;5004028;28;20041;-55
2021/12/18 10:41:32;;;;;;;12.57;3.88;;;8.20;99.90;;;;;;5008241;28;20046;-56
2021/12/18 10:44:12;;;;;;;10.48;4.35;;;8.10;99.90;;;;;;5002739;28;20045;-56
2021/12/18 10:46:43;;;;;;;9.50;4.28;;;8.20;99.90;;;;;;5018607;28;20048;-56
2021/12/18 10:49:10;;;;;;;10.68;4.28;;;8.30;99.90;;;;;;5000151;28;20049;-56
2021/12/18 10:51:38;;;;;;;18.08;5.55;;;8.10;99.90;;;;;;5005294;28;20052;-45
2021/12/18 10:54:14;;;;;;;12.80;4.97;;;8.10;99.90;;;;;;5003985;28;20058;-43
2021/12/18 10:56:43;;;;;;;10.00;4.40;;;8.10;99.90;;;;;;5006492;28;20045;-45
2021/12/18 10:59:25;;;;;;;16.17;4.20;;;8.20;99.90;;;;;;5009338;28;21034;-44
2021/12/18 11:01:51;;;;;;;;;;;8.20;99.90;;;;;;5021184;28;20033;-45
2021/12/18 11:04:29;;;;;;;14.13;4.35;;;8.30;99.90;;;;;;5017816;28;19981;-47
2021/12/18 11:06:56;;;;;;;7.97;3.78;;;8.20;99.90;;;;;;5075780;28;20044;-44
2021/12/18 11:09:32;;;;;;;11.52;4.05;;;8.20;99.90;;;;;;5059786;28;20040;-44
2021/12/18 11:14:34;;;;;;;11.60;5.00;;;8.30;99.90;;;;;;5080586;28;20044;-44
2021/12/18 11:17:03;;;;;;;8.90;4.25;;;8.40;99.90;;;;;;5060347;28;20091;-45
2021/12/18 11:19:31;;;;;;;9.98;3.92;;;8.40;99.90;;;;;;5069969;28;20032;-45
2021/12/18 11:22:03;;;;;;;10.65;4.78;;;8.30;99.90;;;;;;5062724;28;20497;-44
2021/12/18 11:24:35;;;;;;;;;;;8.40;99.90;;;;;;5066947;28;20047;-46
2021/12/18 11:27:07;;;;;;;10.88;3.85;;;8.50;99.90;;;;;;5059860;28;19924;-46
2021/12/18 11:29:44;;;;;;;8.55;3.80;;;8.60;99.90;;;;;;5078877;28;20293;-44
2021/12/18 11:32:32;;;;;;;8.93;3.80;;;9.50;99.90;;;;;;5064803;28;20040;-44
2021/12/18 11:35:05;;;;;;;10.55;4.18;;;8.60;99.90;;;;;;5077217;28;20135;-44
2021/12/18 11:37:41;;;;;;;9.95;3.83;;;8.70;99.90;;;;;;5073312;28;20044;-47
2021/12/18 11:40:09;;;;;;;11.23;4.30;;;8.50;99.90;;;;;;5061700;28;20119;-46
2021/12/18 11:42:35;;;;;;;11.00;3.60;;;8.50;99.90;;;;;;5073733;28;20816;-45
2021/12/18 11:45:05;;;;;;;10.80;3.60;;;10.40;99.90;;;;;;5075991;28;21157;-46
2021/12/18 11:47:42;;;;;;;12.70;4.22;;;8.70;99.90;;;;;;5077180;28;20039;-48
2021/12/18 11:50:19;;;;;;;15.95;3.90;;;8.70;99.90;;;;;;5078673;28;20294;-45
2021/12/18 11:53:13;;;;;;;10.63;3.50;;;8.70;99.90;;;;;;5069684;28;20071;-46
2021/12/18 11:55:51;;;;;;;11.38;3.53;;;8.70;99.90;;;;;;5070597;28;20374;-45
2021/12/18 11:58:27;;;;;;;11.75;3.10;;;8.70;99.90;;;;;;5063323;28;20040;-45
2021/12/18 12:00:55;;;;;;;11.63;3.00;;;8.60;99.90;;;;;;5076726;28;20040;-47
2021/12/18 12:03:30;;;;;;;11.80;3.10;;;8.60;99.90;;;;;;5079685;28;20044;-46
2021/12/18 12:05:59;;;;;;;11.63;2.67;;;8.60;99.90;;;;;;5063775;28;20416;-49
2021/12/18 12:08:29;;;;;;;8.13;2.60;;;8.70;99.90;;;;;;5068475;28;20036;-47
2021/12/18 12:11:27;;;;;;;9.57;2.33;;;8.70;99.90;;;;;;5073612;28;20052;-46
2021/12/18 12:14:06;;;;;;;12.13;2.38;;;8.70;99.90;;;;;;5017740;28;20651;-46
2021/12/18 12:17:04;;;;;;;9.65;2.70;;;8.60;99.90;;;;;;5016777;28;20646;-48
2021/12/18 12:19:35;;;;;;;8.68;3.33;;;8.80;99.90;;;;;;4960816;28;20055;-47
2021/12/18 12:22:05;;;;;;;10.35;2.80;;;8.70;99.90;;;;;;4958111;28;20409;-44
2021/12/18 12:24:50;;;;;;;10.35;2.75;;;9.20;99.90;;;;;;4943824;28;20416;-47
2021/12/18 12:27:28;;;;;;;12.30;2.55;;;8.70;99.90;;;;;;4960729;28;20142;-49
2021/12/18 12:29:55;;;;;;;12.68;3.40;;;8.80;99.90;;;;;;4960333;28;20571;-48
2021/12/18 12:32:21;;;;;;;8.05;2.65;;;8.50;99.90;;;;;;4960042;28;20126;-46
2021/12/18 12:35:01;;;;;;;8.45;2.53;;;8.80;99.90;;;;;;4960170;28;20038;-48
2021/12/18 12:37:27;;;;;;;9.63;3.50;;;8.60;99.90;;;;;;4960727;28;20195;-45
2021/12/18 12:40:02;;;;;;;14.10;4.65;;;8.50;99.90;;;;;;4961153;28;20189;-46
2021/12/18 12:42:28;;;;;;;8.27;2.88;;;8.50;99.90;;;;;;4958536;28;20352;-49
2021/12/18 12:45:07;;;;;;;18.88;8.38;;;8.60;99.90;;;;;;4960853;28;20132;-49
2021/12/18 12:47:33;;;;;;;11.18;3.40;;;8.60;99.90;;;;;;4959987;28;20899;-46
2021/12/18 12:50:22;;;;;;;13.93;2.55;;;9.40;99.90;;;;;;4987536;28;20144;-49
2021/12/18 12:52:55;;;;;;;13.68;2.65;;;8.60;99.90;;;;;;4972112;28;20069;-47
2021/12/18 12:55:23;;;;;;;7.95;3.22;;;8.60;99.90;;;;;;4994186;28;20038;-48
2021/12/18 12:57:51;;;;;;;8.60;2.97;;;8.50;99.90;;;;;;5019319;28;20054;-48
2021/12/18 13:00:23;;;;;;;11.80;2.67;;;8.90;99.90;;;;;;5002334;28;20446;-47
2021/12/18 13:02:49;;;;;;;9.52;2.08;;;8.50;99.90;;;;;;5012537;28;20190;-49
2021/12/18 13:05:14;;;;;;;9.88;2.47;;;8.50;99.90;;;;;;5016353;28;20037;-46
2021/12/18 13:07:50;;;;;;;12.95;2.78;;;8.60;99.90;;;;;;5005839;28;20120;-50
2021/12/18 13:10:24;;;;;;;11.10;2.83;;;8.50;99.90;;;;;;5010821;28;20100;-46
2021/12/18 13:12:59;;;;;;;9.30;2.50;;;8.50;99.90;;;;;;5004357;28;20666;-47
2021/12/18 13:15:25;;;;;;;11.50;3.55;;;8.30;99.90;;;;;;5011204;28;20091;-47
2021/12/18 13:18:12;;;;;;;6.22;1.98;;;8.40;99.90;;;;;;5007339;28;20054;-47
2021/12/18 13:20:55;;;;;;;12.45;2.40;;;8.30;99.90;;;;;;5016435;28;20034;-48
2021/12/18 13:23:42;;;;;;;11.32;3.00;;;8.20;99.90;;;;;;4988445;28;20084;-50
2021/12/18 13:26:11;;;;;;;10.80;2.58;;;8.30;99.90;;;;;;5015650;28;20053;-46
2021/12/18 13:28:49;;;;;;;12.02;3.72;;;8.40;99.90;;;;;;5009446;28;20034;-45
2021/12/18 13:31:15;;;;;;;14.15;2.90;;;8.40;99.90;;;;;;5073248;28;20036;-46
2021/12/18 13:33:41;;;;;;;7.65;2.47;;;8.40;99.90;;;;;;5075349;28;20052;-51
2021/12/18 13:36:07;;;;;;;8.63;2.50;;;8.30;99.90;;;;;;5077730;28;20028;-45
2021/12/18 13:38:36;;;;;;;9.73;2.97;;;9.30;99.90;;;;;;5097834;28;20028;-47
2021/12/18 13:41:06;;;;;;;10.13;2.63;;;8.30;99.90;;;;;;5083073;28;20044;-46
2021/12/18 13:43:32;;;;;;;16.50;2.70;;;8.20;99.90;;;;;;5083218;28;20034;-50
2021/12/18 13:46:02;;;;;;;8.35;2.63;;;8.30;99.90;;;;;;5067724;28;20041;-49
2021/12/18 13:48:37;;;;;;;7.88;2.75;;;8.20;99.90;;;;;;5063118;28;20455;-46
2021/12/18 13:51:11;;;;;;;11.65;2.95;;;8.30;99.90;;;;;;5071476;28;20060;-52
2021/12/18 13:53:54;;;;;;;8.20;2.47;;;8.20;99.90;;;;;;5064312;28;20048;-47
2021/12/18 13:56:22;;;;;;;9.25;2.53;;;8.20;99.90;;;;;;5069669;28;20097;-50
2021/12/18 13:58:48;;;;;;;10.35;2.50;;;8.20;99.90;;;;;;5080704;28;20058;-47
2021/12/18 14:01:16;;;;;;;11.73;3.30;;;8.20;99.90;;;;;;5080539;28;20127;-46